Hauptseite
METAR-TAF:

METAR-TAF

Flughäfen :

Flughafen Tokio-Haneda

Tokio-Haneda, Japan

Breite: 35-33N, Länge: 139-47E, Höhe: 5 m

Beobachtung

Neuester Wetterbericht von vor 39 Minuten, um 07:30 UTC
Wind 15 kt aus Süd
Temperatur 24°C
Luftfeuchtigkeit 74%
Luftdruck 1009 hPa
Sichtweite 10 km oder mehr
Leicht bewölkt in der Höhe von 3500 ft
Aufgelockert bewölkt

METAR: RJTT 270730Z 17015KT 9999 FEW035 SCT/// 24/19 Q1009 NOSIG

Zeit: 17:09 (08:09 UTC)

Prognose

Neuester Wetterbericht von vor 3 Stunden und 4 Minuten, um 05:05 UTC
Gültige Prognose vom 27 um 06 UTC bis 28 um 12 UTC
Wind 14 kt aus Süd
Sichtweite 10 km oder mehr
Leicht bewölkt in der Höhe von 2000 ft
Übergehend zu
vom 27 um 10 UTC bis 27 um 12 UTC
Wind 8 kt aus Ost/Südost
Übergehend zu
vom 27 um 21 UTC bis 28 um 00 UTC
Wind 10 kt aus Süd

TAF: RJTT 270505Z 2706/2812 18014KT 9999 FEW020 BECMG 2710/2712 12008KT BECMG 2721/2800 19010KT

Wetterbeobachtungen und Prognosen von mehr als 4000 Flughäfen (METAR und TAF Bericht).

Die verfügbaren Stationen werden durch gelbe und rote Markierungen auf der Karte dargestellt.

Führen Sie die Maus auf sie, um den Namen der Station zu sehen.

Darauf klicken, um die Beobachtung von Wetterbeobachtungen und Prognosen zu sehen.

Um die Karte zu ändern : klicken Sie auf den grünen Tasten mit einem schwarzen Kreuz Zum Vergrößern, auf den grünen Button mit einem Gedankenstrich zu verkleinern, oder auf die grünen Pfeile für benachbarte Karten.


METAR-TAF: